Aérodrome :
LOGIN :

S'inscrire | Disclaimer

   EN    FR    IT 

 










Légende :    VFR   VFR Marginal   IFR   IFR Intensif   IFR Très Intensif
Visi : 
Plafond : 
>= 8 km
>= 3000ft
5 à 8 km
1000 à 3000 ft
1500m à 5 km
500 à 1000 ft
800 à 1500m
200 à 500 ft
< 800m
< 200 ft
Symboles :   Orages  Brouillard  Fortes neiges  Fortes précipitations  Vent > 20 kt
SIGMETs :   Divers  Orages  Givrage  Turbulence  Onde Orograph.  Cendres Volcan.






- Altitude de l'aérodrome : 526 ft
- Code IATA : LTN


EGGW - London Luton

DERNIER METAR :
  • 020550Z AUTO 26008KT 9999 OVC014 05/02 Q1016

METARs EXPIRÉS :
  • 020520Z AUTO 28008KT 9999 BKN016 OVC028 05/02 Q1016
  • 020450Z AUTO 27006KT 9999 BKN016 OVC021 05/02 Q1016
  • 020420Z AUTO 26007KT 9999 BKN021 OVC029 04/02 Q1016
  • 020350Z AUTO 26006KT 9999 BKN028 BKN038 03/01 Q1017

TAF TAF EGGW
Valide du 02 à 06h jusqu'au 03 à 06h UTC


020501Z 0206/0306 28005KT 9999 SCT040
TEMPO 0206/0210 8000 -RA BKN012
BECMG 0210/0213 29015KT
TEMPO 0210/0222 8000 -SHRA
BECMG 0222/0301 32005KT
ATIS : +44 1582 395 204



MET'MAP, la Météo Aéronautique d'un coup d'oeil ! - Copyright ORBIFLY Décembre 2007 - Disclaimer

ORBIFLY MET'MAP TEAM :

Programmation & Développement : Alexandra Zaïnal
Sur une idée originale de : Baudouin d'Aumeries
Assistance à la programmation : Marc-Olivier Méhu
Soutien technique & logistique : Manuel Goepfert

Contact : metmap@orbifly.com




SOURCES & CREDITS :

   NOAA